sensor_id;sensor_type;location;lat;lon;timestamp;pressure;altitude;pressure_sealevel;temperature;humidity
34034;BME280;63481;52.588;22.472;2023-02-03T00:00:22;100398.52;;;-1.17;91.34
34034;BME280;63481;52.588;22.472;2023-02-03T00:01:34;100394.50;;;-1.17;91.29
34034;BME280;63481;52.588;22.472;2023-02-03T00:02:27;100401.98;;;-1.15;91.02
34034;BME280;63481;52.588;22.472;2023-02-03T00:03:21;100406.52;;;-1.13;90.97
34034;BME280;63481;52.588;22.472;2023-02-03T00:04:14;100405.00;;;-1.11;91.00
34034;BME280;63481;52.588;22.472;2023-02-03T00:05:08;100404.65;;;-1.11;91.07
34034;BME280;63481;52.588;22.472;2023-02-03T00:06:02;100403.48;;;-1.11;91.27
34034;BME280;63481;52.588;22.472;2023-02-03T00:06:56;100408.14;;;-1.11;91.14
34034;BME280;63481;52.588;22.472;2023-02-03T00:07:50;100408.10;;;-1.13;91.00
34034;BME280;63481;52.588;22.472;2023-02-03T00:08:43;100409.13;;;-1.12;91.05
34034;BME280;63481;52.588;22.472;2023-02-03T00:09:37;100407.68;;;-1.14;91.22
34034;BME280;63481;52.588;22.472;2023-02-03T00:10:32;100410.05;;;-1.11;91.03
34034;BME280;63481;52.588;22.472;2023-02-03T00:11:28;100406.98;;;-1.12;91.05
34034;BME280;63481;52.588;22.472;2023-02-03T00:12:22;100404.19;;;-1.10;90.95
34034;BME280;63481;52.588;22.472;2023-02-03T00:13:15;100407.25;;;-1.09;90.83
34034;BME280;63481;52.588;22.472;2023-02-03T00:14:09;100412.98;;;-1.11;90.88
34034;BME280;63481;52.588;22.472;2023-02-03T00:15:03;100409.80;;;-1.10;90.88
34034;BME280;63481;52.588;22.472;2023-02-03T00:15:56;100406.47;;;-1.08;91.00
34034;BME280;63481;52.588;22.472;2023-02-03T00:16:49;100406.48;;;-1.10;90.81
34034;BME280;63481;52.588;22.472;2023-02-03T00:17:43;100411.39;;;-1.06;90.80
34034;BME280;63481;52.588;22.472;2023-02-03T00:18:37;100412.70;;;-1.05;90.82
34034;BME280;63481;52.588;22.472;2023-02-03T00:19:31;100411.09;;;-1.07;90.90
34034;BME280;63481;52.588;22.472;2023-02-03T00:20:25;100412.76;;;-1.08;90.83
34034;BME280;63481;52.588;22.472;2023-02-03T00:21:19;100418.17;;;-1.06;90.86
34034;BME280;63481;52.588;22.472;2023-02-03T00:22:12;100414.86;;;-1.06;90.63
34034;BME280;63481;52.588;22.472;2023-02-03T00:23:08;100410.02;;;-1.05;90.69
34034;BME280;63481;52.588;22.472;2023-02-03T00:24:01;100414.50;;;-1.04;90.97
34034;BME280;63481;52.588;22.472;2023-02-03T00:24:54;100416.77;;;-1.04;90.77
34034;BME280;63481;52.588;22.472;2023-02-03T00:25:48;100417.04;;;-1.05;90.66
34034;BME280;63481;52.588;22.472;2023-02-03T00:26:42;100417.84;;;-1.10;90.68
34034;BME280;63481;52.588;22.472;2023-02-03T00:27:36;100419.18;;;-1.08;90.64
34034;BME280;63481;52.588;22.472;2023-02-03T00:28:29;100416.46;;;-1.06;90.70
34034;BME280;63481;52.588;22.472;2023-02-03T00:29:24;100415.60;;;-1.07;90.89
34034;BME280;63481;52.588;22.472;2023-02-03T00:30:17;100414.04;;;-1.07;90.97
34034;BME280;63481;52.588;22.472;2023-02-03T00:31:19;100415.77;;;-1.03;90.58
34034;BME280;63481;52.588;22.472;2023-02-03T00:32:12;100416.60;;;-1.06;90.54
34034;BME280;63481;52.588;22.472;2023-02-03T00:33:05;100415.65;;;-1.07;90.64
34034;BME280;63481;52.588;22.472;2023-02-03T00:33:59;100412.50;;;-1.05;90.69
34034;BME280;63481;52.588;22.472;2023-02-03T00:34:52;100411.54;;;-1.06;91.06
34034;BME280;63481;52.588;22.472;2023-02-03T00:35:46;100413.45;;;-1.08;90.88
34034;BME280;63481;52.588;22.472;2023-02-03T00:36:39;100416.95;;;-1.04;90.82
34034;BME280;63481;52.588;22.472;2023-02-03T00:37:33;100421.20;;;-1.01;90.82
34034;BME280;63481;52.588;22.472;2023-02-03T00:38:27;100417.13;;;-1.00;90.85
34034;BME280;63481;52.588;22.472;2023-02-03T00:39:21;100414.34;;;-1.00;90.86
34034;BME280;63481;52.588;22.472;2023-02-03T00:40:14;100415.98;;;-0.99;90.95
34034;BME280;63481;52.588;22.472;2023-02-03T00:41:08;100417.64;;;-0.98;90.81
34034;BME280;63481;52.588;22.472;2023-02-03T00:42:03;100416.83;;;-0.98;90.78
34034;BME280;63481;52.588;22.472;2023-02-03T00:42:57;100417.84;;;-0.98;90.65
34034;BME280;63481;52.588;22.472;2023-02-03T00:43:50;100420.91;;;-0.99;90.85
34034;BME280;63481;52.588;22.472;2023-02-03T00:44:44;100418.11;;;-1.01;90.73
34034;BME280;63481;52.588;22.472;2023-02-03T00:45:37;100421.23;;;-1.01;90.75
34034;BME280;63481;52.588;22.472;2023-02-03T00:46:30;100419.53;;;-0.99;90.78
34034;BME280;63481;52.588;22.472;2023-02-03T00:47:24;100420.86;;;-0.97;90.79
34034;BME280;63481;52.588;22.472;2023-02-03T00:48:17;100421.08;;;-0.98;90.86
34034;BME280;63481;52.588;22.472;2023-02-03T00:49:11;100418.65;;;-0.98;90.84
34034;BME280;63481;52.588;22.472;2023-02-03T00:50:05;100422.63;;;-0.97;90.59
34034;BME280;63481;52.588;22.472;2023-02-03T00:51:00;100424.92;;;-0.97;90.66
34034;BME280;63481;52.588;22.472;2023-02-03T00:51:54;100420.79;;;-0.98;90.58
34034;BME280;63481;52.588;22.472;2023-02-03T00:52:47;100421.39;;;-0.99;90.79
34034;BME280;63481;52.588;22.472;2023-02-03T00:53:41;100422.30;;;-0.97;90.72
34034;BME280;63481;52.588;22.472;2023-02-03T00:54:34;100423.82;;;-0.97;90.69
34034;BME280;63481;52.588;22.472;2023-02-03T00:55:29;100424.27;;;-1.00;90.80
34034;BME280;63481;52.588;22.472;2023-02-03T00:56:23;100424.35;;;-1.01;90.69
34034;BME280;63481;52.588;22.472;2023-02-03T00:57:16;100426.60;;;-0.97;90.77
34034;BME280;63481;52.588;22.472;2023-02-03T00:58:10;100424.68;;;-0.96;90.89
34034;BME280;63481;52.588;22.472;2023-02-03T00:59:04;100422.85;;;-0.95;90.60
34034;BME280;63481;52.588;22.472;2023-02-03T00:59:57;100427.88;;;-0.91;90.75
34034;BME280;63481;52.588;22.472;2023-02-03T01:00:50;100425.67;;;-0.88;90.67
34034;BME280;63481;52.588;22.472;2023-02-03T01:01:45;100421.91;;;-0.87;90.53
34034;BME280;63481;52.588;22.472;2023-02-03T01:02:38;100421.37;;;-0.86;90.45
34034;BME280;63481;52.588;22.472;2023-02-03T01:03:32;100420.48;;;-0.84;90.44
34034;BME280;63481;52.588;22.472;2023-02-03T01:04:25;100420.73;;;-0.83;90.39
34034;BME280;63481;52.588;22.472;2023-02-03T01:05:19;100418.92;;;-0.82;90.40
34034;BME280;63481;52.588;22.472;2023-02-03T01:06:18;100421.64;;;-0.83;90.37
34034;BME280;63481;52.588;22.472;2023-02-03T01:07:13;100422.88;;;-0.84;90.43
34034;BME280;63481;52.588;22.472;2023-02-03T01:08:06;100428.19;;;-0.84;90.24
34034;BME280;63481;52.588;22.472;2023-02-03T01:09:01;100427.16;;;-0.87;90.37
34034;BME280;63481;52.588;22.472;2023-02-03T01:09:54;100426.58;;;-0.88;90.11
34034;BME280;63481;52.588;22.472;2023-02-03T01:10:48;100429.48;;;-0.87;89.95
34034;BME280;63481;52.588;22.472;2023-02-03T01:11:41;100429.17;;;-0.86;90.10
34034;BME280;63481;52.588;22.472;2023-02-03T01:12:35;100425.70;;;-0.86;90.01
34034;BME280;63481;52.588;22.472;2023-02-03T01:13:28;100431.21;;;-0.87;90.14
34034;BME280;63481;52.588;22.472;2023-02-03T01:14:22;100423.98;;;-0.86;90.29
34034;BME280;63481;52.588;22.472;2023-02-03T01:15:16;100429.58;;;-0.88;90.29
34034;BME280;63481;52.588;22.472;2023-02-03T01:16:10;100431.79;;;-0.88;90.14
34034;BME280;63481;52.588;22.472;2023-02-03T01:17:03;100426.93;;;-0.88;90.26
34034;BME280;63481;52.588;22.472;2023-02-03T01:17:56;100426.01;;;-0.90;90.09
34034;BME280;63481;52.588;22.472;2023-02-03T01:18:50;100428.91;;;-0.91;90.07
34034;BME280;63481;52.588;22.472;2023-02-03T01:19:44;100427.56;;;-0.89;90.22
34034;BME280;63481;52.588;22.472;2023-02-03T01:20:37;100437.14;;;-0.89;90.24
34034;BME280;63481;52.588;22.472;2023-02-03T01:21:31;100431.34;;;-0.88;90.32
34034;BME280;63481;52.588;22.472;2023-02-03T01:22:24;100435.08;;;-0.85;90.10
34034;BME280;63481;52.588;22.472;2023-02-03T01:23:17;100435.80;;;-0.84;90.08
34034;BME280;63481;52.588;22.472;2023-02-03T01:24:11;100436.09;;;-0.83;90.18
34034;BME280;63481;52.588;22.472;2023-02-03T01:25:05;100441.13;;;-0.83;90.26
34034;BME280;63481;52.588;22.472;2023-02-03T01:26:10;100436.30;;;-0.84;90.19
34034;BME280;63481;52.588;22.472;2023-02-03T01:27:04;100437.52;;;-0.83;90.24
34034;BME280;63481;52.588;22.472;2023-02-03T01:27:58;100434.71;;;-0.83;90.22
34034;BME280;63481;52.588;22.472;2023-02-03T01:28:56;100434.95;;;-0.82;90.13
34034;BME280;63481;52.588;22.472;2023-02-03T01:29:50;100434.64;;;-0.84;90.02
34034;BME280;63481;52.588;22.472;2023-02-03T01:30:43;100433.35;;;-0.81;90.08
34034;BME280;63481;52.588;22.472;2023-02-03T01:31:39;100436.34;;;-0.84;90.19
34034;BME280;63481;52.588;22.472;2023-02-03T01:32:33;100442.35;;;-0.87;90.16
34034;BME280;63481;52.588;22.472;2023-02-03T01:33:27;100438.48;;;-0.87;90.13
34034;BME280;63481;52.588;22.472;2023-02-03T01:34:20;100439.68;;;-0.84;90.30
34034;BME280;63481;52.588;22.472;2023-02-03T01:35:14;100438.30;;;-0.84;90.18
34034;BME280;63481;52.588;22.472;2023-02-03T01:36:08;100436.97;;;-0.83;90.16
34034;BME280;63481;52.588;22.472;2023-02-03T01:37:02;100442.49;;;-0.82;90.04
34034;BME280;63481;52.588;22.472;2023-02-03T01:37:56;100440.31;;;-0.84;89.99
34034;BME280;63481;52.588;22.472;2023-02-03T01:38:49;100440.73;;;-0.84;90.03
34034;BME280;63481;52.588;22.472;2023-02-03T01:39:43;100436.72;;;-0.82;90.02
34034;BME280;63481;52.588;22.472;2023-02-03T01:40:43;100439.09;;;-0.81;89.88
34034;BME280;63481;52.588;22.472;2023-02-03T01:41:38;100438.76;;;-0.81;89.88
34034;BME280;63481;52.588;22.472;2023-02-03T01:42:32;100437.72;;;-0.82;89.95
34034;BME280;63481;52.588;22.472;2023-02-03T01:43:34;100433.30;;;-0.83;90.07
34034;BME280;63481;52.588;22.472;2023-02-03T01:45:34;100432.89;;;-0.86;90.01
34034;BME280;63481;52.588;22.472;2023-02-03T01:46:32;100431.38;;;-0.89;89.87
34034;BME280;63481;52.588;22.472;2023-02-03T01:47:38;100429.01;;;-0.92;89.81
34034;BME280;63481;52.588;22.472;2023-02-03T01:48:38;100423.68;;;-0.93;89.92
34034;BME280;63481;52.588;22.472;2023-02-03T01:49:35;100430.65;;;-0.93;90.03
34034;BME280;63481;52.588;22.472;2023-02-03T01:50:31;100422.02;;;-0.96;89.81
34034;BME280;63481;52.588;22.472;2023-02-03T01:51:26;100419.41;;;-1.00;89.90
34034;BME280;63481;52.588;22.472;2023-02-03T01:52:20;100415.27;;;-1.03;89.85
34034;BME280;63481;52.588;22.472;2023-02-03T01:53:14;100419.11;;;-1.05;89.89
34034;BME280;63481;52.588;22.472;2023-02-03T01:54:13;100424.58;;;-1.09;90.07
34034;BME280;63481;52.588;22.472;2023-02-03T01:55:14;100415.30;;;-1.09;90.13
34034;BME280;63481;52.588;22.472;2023-02-03T01:56:08;100414.80;;;-1.09;90.16
34034;BME280;63481;52.588;22.472;2023-02-03T01:57:47;100408.01;;;-1.10;90.01
34034;BME280;63481;52.588;22.472;2023-02-03T01:58:45;100417.83;;;-1.12;90.13
34034;BME280;63481;52.588;22.472;2023-02-03T01:59:42;100415.29;;;-1.13;90.10
34034;BME280;63481;52.588;22.472;2023-02-03T02:00:36;100414.33;;;-1.19;90.38
34034;BME280;63481;52.588;22.472;2023-02-03T02:01:30;100411.66;;;-1.20;90.32
34034;BME280;63481;52.588;22.472;2023-02-03T02:02:25;100412.62;;;-1.21;90.37
34034;BME280;63481;52.588;22.472;2023-02-03T02:03:21;100411.36;;;-1.21;90.22
34034;BME280;63481;52.588;22.472;2023-02-03T02:04:15;100407.60;;;-1.22;90.30
34034;BME280;63481;52.588;22.472;2023-02-03T02:05:31;100410.09;;;-1.24;90.25
34034;BME280;63481;52.588;22.472;2023-02-03T02:06:26;100411.46;;;-1.26;90.36
34034;BME280;63481;52.588;22.472;2023-02-03T02:07:19;100413.65;;;-1.27;90.36
34034;BME280;63481;52.588;22.472;2023-02-03T02:08:14;100412.34;;;-1.28;90.52
34034;BME280;63481;52.588;22.472;2023-02-03T02:09:10;100415.91;;;-1.27;90.46
34034;BME280;63481;52.588;22.472;2023-02-03T02:10:04;100416.67;;;-1.32;90.61
34034;BME280;63481;52.588;22.472;2023-02-03T02:11:00;100423.30;;;-1.32;90.66
34034;BME280;63481;52.588;22.472;2023-02-03T02:11:54;100426.07;;;-1.30;90.49
34034;BME280;63481;52.588;22.472;2023-02-03T02:12:47;100417.88;;;-1.28;90.59
34034;BME280;63481;52.588;22.472;2023-02-03T02:13:42;100419.08;;;-1.30;90.70
34034;BME280;63481;52.588;22.472;2023-02-03T02:14:37;100412.95;;;-1.29;90.60
34034;BME280;63481;52.588;22.472;2023-02-03T02:16:11;100411.91;;;-1.31;90.73
34034;BME280;63481;52.588;22.472;2023-02-03T02:17:25;100415.58;;;-1.34;90.77
34034;BME280;63481;52.588;22.472;2023-02-03T02:18:49;100414.44;;;-1.32;90.62
34034;BME280;63481;52.588;22.472;2023-02-03T02:20:12;100409.48;;;-1.32;90.69
34034;BME280;63481;52.588;22.472;2023-02-03T02:22:32;100405.84;;;-1.40;90.63
34034;BME280;63481;52.588;22.472;2023-02-03T02:31:55;100408.81;;;-1.44;91.03
34034;BME280;63481;52.588;22.472;2023-02-03T02:33:00;100407.78;;;-1.43;91.04
34034;BME280;63481;52.588;22.472;2023-02-03T02:34:10;100413.03;;;-1.43;91.02
34034;BME280;63481;52.588;22.472;2023-02-03T02:36:30;100414.04;;;-1.44;91.04
34034;BME280;63481;52.588;22.472;2023-02-03T02:38:52;100413.86;;;-1.46;91.10
34034;BME280;63481;52.588;22.472;2023-02-03T02:40:05;100406.73;;;-1.47;91.11
34034;BME280;63481;52.588;22.472;2023-02-03T02:41:11;100407.93;;;-1.50;91.06
34034;BME280;63481;52.588;22.472;2023-02-03T02:42:45;100412.30;;;-1.49;91.06
34034;BME280;63481;52.588;22.472;2023-02-03T02:43:56;100412.27;;;-1.50;91.10
34034;BME280;63481;52.588;22.472;2023-02-03T02:44:57;100414.33;;;-1.48;91.26
34034;BME280;63481;52.588;22.472;2023-02-03T02:46:00;100412.64;;;-1.47;91.09
34034;BME280;63481;52.588;22.472;2023-02-03T02:47:00;100419.40;;;-1.46;91.04
34034;BME280;63481;52.588;22.472;2023-02-03T02:48:20;100419.52;;;-1.43;91.13
34034;BME280;63481;52.588;22.472;2023-02-03T02:50:40;100419.00;;;-1.43;90.97
34034;BME280;63481;52.588;22.472;2023-02-03T02:51:37;100424.59;;;-1.43;91.05
34034;BME280;63481;52.588;22.472;2023-02-03T02:52:37;100422.94;;;-1.44;91.22
34034;BME280;63481;52.588;22.472;2023-02-03T02:53:38;100421.98;;;-1.41;91.19
34034;BME280;63481;52.588;22.472;2023-02-03T02:54:32;100422.27;;;-1.41;91.15
34034;BME280;63481;52.588;22.472;2023-02-03T02:55:31;100420.06;;;-1.41;90.99
34034;BME280;63481;52.588;22.472;2023-02-03T02:56:27;100417.41;;;-1.39;91.14
34034;BME280;63481;52.588;22.472;2023-02-03T02:57:23;100416.91;;;-1.35;91.16
34034;BME280;63481;52.588;22.472;2023-02-03T02:58:18;100416.14;;;-1.32;91.00
34034;BME280;63481;52.588;22.472;2023-02-03T02:59:13;100411.38;;;-1.29;91.03
34034;BME280;63481;52.588;22.472;2023-02-03T03:00:07;100412.20;;;-1.29;90.98
34034;BME280;63481;52.588;22.472;2023-02-03T03:01:01;100407.89;;;-1.27;91.11
34034;BME280;63481;52.588;22.472;2023-02-03T03:01:55;100410.04;;;-1.24;90.99
34034;BME280;63481;52.588;22.472;2023-02-03T03:02:47;100409.67;;;-1.20;90.91
34034;BME280;63481;52.588;22.472;2023-02-03T03:03:40;100406.20;;;-1.15;90.85
34034;BME280;63481;52.588;22.472;2023-02-03T03:04:36;100407.53;;;-1.12;90.90
34034;BME280;63481;52.588;22.472;2023-02-03T03:05:29;100407.45;;;-1.15;90.78
34034;BME280;63481;52.588;22.472;2023-02-03T03:06:26;100409.38;;;-1.13;90.80
34034;BME280;63481;52.588;22.472;2023-02-03T03:07:23;100406.19;;;-1.11;90.51
34034;BME280;63481;52.588;22.472;2023-02-03T03:08:22;100408.00;;;-1.08;90.78
34034;BME280;63481;52.588;22.472;2023-02-03T03:09:24;100407.48;;;-1.06;90.69
34034;BME280;63481;52.588;22.472;2023-02-03T03:10:21;100407.69;;;-1.08;90.46
34034;BME280;63481;52.588;22.472;2023-02-03T03:11:18;100405.22;;;-1.12;90.39
34034;BME280;63481;52.588;22.472;2023-02-03T03:12:20;100406.02;;;-1.13;90.59
34034;BME280;63481;52.588;22.472;2023-02-03T03:13:20;100405.92;;;-1.08;90.36
34034;BME280;63481;52.588;22.472;2023-02-03T03:14:17;100409.38;;;-1.07;90.36
34034;BME280;63481;52.588;22.472;2023-02-03T03:15:17;100406.77;;;-1.10;90.20
34034;BME280;63481;52.588;22.472;2023-02-03T03:16:13;100404.46;;;-1.09;90.10
34034;BME280;63481;52.588;22.472;2023-02-03T03:17:10;100406.43;;;-1.06;90.20
34034;BME280;63481;52.588;22.472;2023-02-03T03:18:13;100404.04;;;-1.06;90.03
34034;BME280;63481;52.588;22.472;2023-02-03T03:19:10;100403.42;;;-1.07;90.02
34034;BME280;63481;52.588;22.472;2023-02-03T03:20:09;100402.74;;;-1.05;90.01
34034;BME280;63481;52.588;22.472;2023-02-03T03:21:04;100407.10;;;-1.03;89.87
34034;BME280;63481;52.588;22.472;2023-02-03T03:22:03;100408.91;;;-1.02;89.92
34034;BME280;63481;52.588;22.472;2023-02-03T03:23:18;100404.70;;;-1.02;89.76
34034;BME280;63481;52.588;22.472;2023-02-03T03:24:17;100404.52;;;-1.01;89.63
34034;BME280;63481;52.588;22.472;2023-02-03T03:25:17;100401.71;;;-1.01;89.76
34034;BME280;63481;52.588;22.472;2023-02-03T03:26:18;100399.48;;;-1.04;89.65
34034;BME280;63481;52.588;22.472;2023-02-03T03:27:27;100400.71;;;-1.08;89.63
34034;BME280;63481;52.588;22.472;2023-02-03T03:28:26;100395.29;;;-1.06;89.63
34034;BME280;63481;52.588;22.472;2023-02-03T03:29:44;100395.48;;;-1.04;89.77
34034;BME280;63481;52.588;22.472;2023-02-03T03:30:40;100396.78;;;-1.05;89.60
34034;BME280;63481;52.588;22.472;2023-02-03T03:31:34;100397.42;;;-1.10;89.82
34034;BME280;63481;52.588;22.472;2023-02-03T03:32:28;100399.88;;;-1.11;89.78
34034;BME280;63481;52.588;22.472;2023-02-03T03:33:24;100399.95;;;-1.07;89.58
34034;BME280;63481;52.588;22.472;2023-02-03T03:34:17;100403.15;;;-1.08;89.69
34034;BME280;63481;52.588;22.472;2023-02-03T03:35:10;100401.73;;;-1.12;89.49
34034;BME280;63481;52.588;22.472;2023-02-03T03:36:31;100400.58;;;-1.14;89.74
34034;BME280;63481;52.588;22.472;2023-02-03T03:37:35;100400.45;;;-1.20;89.72
34034;BME280;63481;52.588;22.472;2023-02-03T03:40:43;100397.09;;;-1.19;89.69
34034;BME280;63481;52.588;22.472;2023-02-03T03:42:43;100400.66;;;-1.18;89.76
34034;BME280;63481;52.588;22.472;2023-02-03T03:43:42;100399.45;;;-1.18;89.82
34034;BME280;63481;52.588;22.472;2023-02-03T03:44:42;100400.09;;;-1.15;89.79
34034;BME280;63481;52.588;22.472;2023-02-03T03:45:52;100403.50;;;-1.16;89.90
34034;BME280;63481;52.588;22.472;2023-02-03T03:47:08;100401.76;;;-1.18;89.78
34034;BME280;63481;52.588;22.472;2023-02-03T03:48:11;100405.19;;;-1.24;89.73
34034;BME280;63481;52.588;22.472;2023-02-03T03:49:07;100405.27;;;-1.23;89.88
34034;BME280;63481;52.588;22.472;2023-02-03T03:50:05;100405.43;;;-1.21;89.78
34034;BME280;63481;52.588;22.472;2023-02-03T03:51:03;100403.21;;;-1.13;90.02
34034;BME280;63481;52.588;22.472;2023-02-03T03:52:01;100397.88;;;-1.11;89.92
34034;BME280;63481;52.588;22.472;2023-02-03T03:52:57;100398.59;;;-1.08;89.88
34034;BME280;63481;52.588;22.472;2023-02-03T03:53:53;100402.90;;;-1.09;89.90
34034;BME280;63481;52.588;22.472;2023-02-03T03:54:50;100402.84;;;-1.08;89.94
34034;BME280;63481;52.588;22.472;2023-02-03T03:55:48;100403.60;;;-1.05;90.06
34034;BME280;63481;52.588;22.472;2023-02-03T03:56:49;100411.17;;;-1.02;89.87
34034;BME280;63481;52.588;22.472;2023-02-03T03:57:44;100407.41;;;-1.01;90.02
34034;BME280;63481;52.588;22.472;2023-02-03T03:58:41;100405.78;;;-1.00;89.97
34034;BME280;63481;52.588;22.472;2023-02-03T03:59:39;100408.70;;;-0.99;90.15
34034;BME280;63481;52.588;22.472;2023-02-03T04:00:35;100407.68;;;-1.00;90.00
34034;BME280;63481;52.588;22.472;2023-02-03T04:01:29;100409.34;;;-0.99;89.87
34034;BME280;63481;52.588;22.472;2023-02-03T04:02:23;100409.48;;;-0.98;90.05
34034;BME280;63481;52.588;22.472;2023-02-03T04:03:22;100413.75;;;-0.95;90.16
34034;BME280;63481;52.588;22.472;2023-02-03T04:04:16;100415.09;;;-0.97;89.98
34034;BME280;63481;52.588;22.472;2023-02-03T04:05:10;100412.54;;;-0.99;89.99
34034;BME280;63481;52.588;22.472;2023-02-03T04:06:05;100416.38;;;-0.99;90.06
34034;BME280;63481;52.588;22.472;2023-02-03T04:06:58;100417.98;;;-1.02;89.80
34034;BME280;63481;52.588;22.472;2023-02-03T04:07:51;100420.11;;;-1.02;89.94
34034;BME280;63481;52.588;22.472;2023-02-03T04:08:45;100413.55;;;-1.01;89.93
34034;BME280;63481;52.588;22.472;2023-02-03T04:09:38;100422.49;;;-0.97;90.08
34034;BME280;63481;52.588;22.472;2023-02-03T04:10:39;100423.55;;;-0.95;90.05
34034;BME280;63481;52.588;22.472;2023-02-03T04:11:32;100420.66;;;-0.96;89.98
34034;BME280;63481;52.588;22.472;2023-02-03T04:12:44;100418.33;;;-0.98;89.99
34034;BME280;63481;52.588;22.472;2023-02-03T04:13:38;100418.25;;;-0.97;90.06
34034;BME280;63481;52.588;22.472;2023-02-03T04:14:33;100417.98;;;-0.96;89.96
34034;BME280;63481;52.588;22.472;2023-02-03T04:15:28;100422.33;;;-0.97;90.10
34034;BME280;63481;52.588;22.472;2023-02-03T04:16:21;100421.92;;;-0.97;90.09
34034;BME280;63481;52.588;22.472;2023-02-03T04:17:15;100423.68;;;-0.97;90.25
34034;BME280;63481;52.588;22.472;2023-02-03T04:18:11;100426.19;;;-0.98;90.12
34034;BME280;63481;52.588;22.472;2023-02-03T04:19:05;100426.84;;;-0.99;90.03
34034;BME280;63481;52.588;22.472;2023-02-03T04:19:58;100428.70;;;-0.99;90.10
34034;BME280;63481;52.588;22.472;2023-02-03T04:20:52;100428.89;;;-0.99;90.12
34034;BME280;63481;52.588;22.472;2023-02-03T04:21:45;100429.45;;;-0.99;90.26
34034;BME280;63481;52.588;22.472;2023-02-03T04:22:37;100426.69;;;-1.00;90.35
34034;BME280;63481;52.588;22.472;2023-02-03T04:23:31;100426.11;;;-0.99;90.50
34034;BME280;63481;52.588;22.472;2023-02-03T04:24:24;100421.43;;;-0.99;90.39
34034;BME280;63481;52.588;22.472;2023-02-03T04:25:18;100425.02;;;-0.98;90.54
34034;BME280;63481;52.588;22.472;2023-02-03T04:26:12;100425.27;;;-0.99;90.42
34034;BME280;63481;52.588;22.472;2023-02-03T04:27:05;100430.35;;;-1.02;90.35
34034;BME280;63481;52.588;22.472;2023-02-03T04:27:58;100423.31;;;-1.05;90.37
34034;BME280;63481;52.588;22.472;2023-02-03T04:28:52;100423.54;;;-1.03;90.47
34034;BME280;63481;52.588;22.472;2023-02-03T04:29:45;100421.17;;;-1.02;90.54
34034;BME280;63481;52.588;22.472;2023-02-03T04:30:39;100424.64;;;-1.02;90.25
34034;BME280;63481;52.588;22.472;2023-02-03T04:31:33;100423.57;;;-1.04;90.44
34034;BME280;63481;52.588;22.472;2023-02-03T04:32:26;100423.33;;;-1.03;90.46
34034;BME280;63481;52.588;22.472;2023-02-03T04:33:19;100421.85;;;-1.02;90.56
34034;BME280;63481;52.588;22.472;2023-02-03T04:34:13;100421.67;;;-1.02;90.43
34034;BME280;63481;52.588;22.472;2023-02-03T04:35:07;100422.71;;;-1.02;90.42
34034;BME280;63481;52.588;22.472;2023-02-03T04:36:00;100422.24;;;-1.02;90.46
34034;BME280;63481;52.588;22.472;2023-02-03T04:36:53;100426.35;;;-1.02;90.33
34034;BME280;63481;52.588;22.472;2023-02-03T04:37:46;100421.73;;;-1.05;90.17
34034;BME280;63481;52.588;22.472;2023-02-03T04:38:40;100424.23;;;-1.05;90.36
34034;BME280;63481;52.588;22.472;2023-02-03T04:39:33;100423.67;;;-1.07;90.26
34034;BME280;63481;52.588;22.472;2023-02-03T04:40:26;100427.51;;;-1.07;90.07
34034;BME280;63481;52.588;22.472;2023-02-03T04:41:19;100428.04;;;-1.03;89.98
34034;BME280;63481;52.588;22.472;2023-02-03T04:42:13;100425.33;;;-1.02;89.97
34034;BME280;63481;52.588;22.472;2023-02-03T04:43:06;100434.55;;;-1.02;89.89
34034;BME280;63481;52.588;22.472;2023-02-03T04:43:59;100429.40;;;-1.03;89.91
34034;BME280;63481;52.588;22.472;2023-02-03T04:44:53;100428.85;;;-1.02;89.82
34034;BME280;63481;52.588;22.472;2023-02-03T04:45:46;100430.73;;;-1.02;90.01
34034;BME280;63481;52.588;22.472;2023-02-03T04:46:39;100429.95;;;-1.05;89.83
34034;BME280;63481;52.588;22.472;2023-02-03T04:47:33;100433.04;;;-1.07;89.91
34034;BME280;63481;52.588;22.472;2023-02-03T04:48:27;100434.23;;;-1.06;89.69
34034;BME280;63481;52.588;22.472;2023-02-03T04:49:20;100433.64;;;-1.06;89.85
34034;BME280;63481;52.588;22.472;2023-02-03T04:50:13;100433.40;;;-1.07;89.80
34034;BME280;63481;52.588;22.472;2023-02-03T04:51:07;100432.09;;;-1.08;89.75
34034;BME280;63481;52.588;22.472;2023-02-03T04:52:00;100435.73;;;-1.09;89.78
34034;BME280;63481;52.588;22.472;2023-02-03T04:52:54;100434.10;;;-1.13;89.82
34034;BME280;63481;52.588;22.472;2023-02-03T04:53:47;100432.76;;;-1.16;89.88
34034;BME280;63481;52.588;22.472;2023-02-03T04:54:40;100433.55;;;-1.17;89.94
34034;BME280;63481;52.588;22.472;2023-02-03T04:55:34;100432.23;;;-1.20;89.97
34034;BME280;63481;52.588;22.472;2023-02-03T04:56:27;100429.60;;;-1.22;90.17
34034;BME280;63481;52.588;22.472;2023-02-03T04:57:20;100433.55;;;-1.21;89.95
34034;BME280;63481;52.588;22.472;2023-02-03T04:58:14;100435.04;;;-1.22;89.73
34034;BME280;63481;52.588;22.472;2023-02-03T04:59:07;100432.33;;;-1.21;89.99
34034;BME280;63481;52.588;22.472;2023-02-03T05:00:01;100431.92;;;-1.21;89.81
34034;BME280;63481;52.588;22.472;2023-02-03T05:00:55;100434.83;;;-1.22;89.76
34034;BME280;63481;52.588;22.472;2023-02-03T05:01:48;100435.58;;;-1.22;89.76
34034;BME280;63481;52.588;22.472;2023-02-03T05:02:41;100432.63;;;-1.23;89.82
34034;BME280;63481;52.588;22.472;2023-02-03T05:03:35;100431.50;;;-1.22;89.79
34034;BME280;63481;52.588;22.472;2023-02-03T05:04:28;100433.33;;;-1.21;89.76
34034;BME280;63481;52.588;22.472;2023-02-03T05:05:22;100435.80;;;-1.21;89.63
34034;BME280;63481;52.588;22.472;2023-02-03T05:06:15;100434.28;;;-1.22;89.83
34034;BME280;63481;52.588;22.472;2023-02-03T05:07:08;100434.52;;;-1.22;89.64
34034;BME280;63481;52.588;22.472;2023-02-03T05:08:05;100433.09;;;-1.24;89.72
34034;BME280;63481;52.588;22.472;2023-02-03T05:08:58;100438.86;;;-1.24;89.73
34034;BME280;63481;52.588;22.472;2023-02-03T05:09:52;100435.55;;;-1.22;89.63